createdAt,value
2022-10-09T00:04:01.827Z,2.17
2022-10-09T00:09:09.683Z,2.20
2022-10-09T00:14:17.577Z,2.40
2022-10-09T00:19:25.533Z,2.33
2022-10-09T00:24:33.623Z,2.57
2022-10-09T00:29:42.173Z,2.40
2022-10-09T00:34:51.782Z,2.20
2022-10-09T00:39:59.640Z,2.40
2022-10-09T00:45:08.480Z,2.33
2022-10-09T00:50:19.507Z,2.47
2022-10-09T00:55:28.561Z,2.40
2022-10-09T01:00:36.443Z,2.40
2022-10-09T01:05:47.519Z,2.50
2022-10-09T01:10:59.011Z,2.33
2022-10-09T01:21:22.904Z,2.40
2022-10-09T01:26:34.025Z,2.60
2022-10-09T01:31:43.529Z,2.87
2022-10-09T01:36:51.998Z,2.67
2022-10-09T01:41:59.783Z,2.60
2022-10-09T01:47:07.703Z,2.77
2022-10-09T01:52:19.247Z,2.63
2022-10-09T01:57:30.854Z,2.70
2022-10-09T02:02:38.885Z,2.50
2022-10-09T02:07:46.799Z,2.90
2022-10-09T02:12:56.424Z,2.60
2022-10-09T02:18:06.906Z,2.27
2022-10-09T02:23:14.829Z,2.70
2022-10-09T02:28:22.841Z,2.57
2022-10-09T02:33:33.918Z,3.13
2022-10-09T02:38:42.242Z,2.87
2022-10-09T02:43:50.033Z,2.60
2022-10-09T02:48:57.886Z,2.67
2022-10-09T02:54:07.925Z,3.10
2022-10-09T02:59:15.759Z,2.63
2022-10-09T03:04:23.770Z,2.63
2022-10-09T03:09:33.876Z,2.90
2022-10-09T03:14:42.376Z,2.80
2022-10-09T03:19:50.300Z,2.80
2022-10-09T03:24:58.494Z,2.70
2022-10-09T03:30:07.135Z,2.70
2022-10-09T03:35:15.054Z,2.60
2022-10-09T03:40:22.912Z,2.37
2022-10-09T03:45:30.704Z,2.70
2022-10-09T03:50:40.662Z,2.60
2022-10-09T03:55:48.586Z,3.20
2022-10-09T04:00:56.616Z,3.03
2022-10-09T04:06:05.183Z,2.80
2022-10-09T04:11:13.207Z,2.43
2022-10-09T04:16:21.098Z,2.87
2022-10-09T04:21:29.668Z,3.53
2022-10-09T04:26:39.431Z,2.63
2022-10-09T04:31:47.329Z,2.20
2022-10-09T04:36:55.175Z,2.07
2022-10-09T04:42:03.652Z,2.70
2022-10-09T04:47:11.656Z,2.90
2022-10-09T04:52:19.544Z,2.23
2022-10-09T04:57:27.428Z,2.50
2022-10-09T05:02:35.465Z,2.67
2022-10-09T05:07:43.412Z,2.10
2022-10-09T05:12:51.554Z,2.90
2022-10-09T05:17:59.634Z,2.70
2022-10-09T05:23:07.590Z,2.47
2022-10-09T05:28:15.463Z,2.60
2022-10-09T05:33:23.607Z,3.03
2022-10-09T05:38:31.540Z,2.37
2022-10-09T05:43:41.553Z,2.00
2022-10-09T05:48:52.813Z,2.13
2022-10-09T05:54:02.265Z,2.10
2022-10-09T05:59:11.727Z,3.20
2022-10-09T06:04:21.880Z,2.63
2022-10-09T06:09:29.820Z,2.83
2022-10-09T06:14:37.878Z,2.77
2022-10-09T06:19:45.752Z,3.00
2022-10-09T06:24:53.558Z,2.63
2022-10-09T06:30:01.566Z,3.27
2022-10-09T06:35:10.887Z,3.40
2022-10-09T06:40:18.740Z,3.63
2022-10-09T06:45:26.631Z,2.50
2022-10-09T06:50:37.790Z,2.90
2022-10-09T06:55:48.744Z,2.53
2022-10-09T07:00:59.712Z,2.40
2022-10-09T07:06:11.014Z,2.87
2022-10-09T07:11:22.420Z,2.50
2022-10-09T07:16:32.974Z,2.70
2022-10-09T07:21:42.722Z,3.23
2022-10-09T07:26:50.606Z,2.77
2022-10-09T07:31:58.632Z,3.37
2022-10-09T07:37:06.596Z,2.83
2022-10-09T07:42:14.707Z,2.80
2022-10-09T07:47:22.603Z,2.47
2022-10-09T07:52:30.607Z,2.57
2022-10-09T07:57:39.102Z,2.30
2022-10-09T08:02:47.382Z,2.70
2022-10-09T08:07:55.727Z,2.70
2022-10-09T08:13:03.733Z,3.20
2022-10-09T08:18:12.290Z,2.37
2022-10-09T08:23:20.285Z,2.10
2022-10-09T08:33:26.178Z,2.43
2022-10-09T08:38:46.678Z,2.13
2022-10-09T08:43:46.202Z,1.63
2022-10-09T08:48:55.366Z,2.00
2022-10-09T08:54:07.264Z,1.40
2022-10-09T08:59:15.807Z,1.50
2022-10-09T09:04:27.183Z,1.70
2022-10-09T09:09:38.523Z,1.50
2022-10-09T09:14:49.663Z,1.30
2022-10-09T09:20:00.684Z,1.53
2022-10-09T09:25:13.723Z,1.40
2022-10-09T09:30:25.037Z,1.03
2022-10-09T09:35:36.096Z,1.20
2022-10-09T09:40:46.987Z,0.97
2022-10-09T09:45:56.382Z,0.70
2022-10-09T09:51:26.896Z,1.27
2022-10-09T09:56:14.634Z,0.60
2022-10-09T10:06:40.077Z,0.70
2022-10-09T10:17:03.189Z,0.57
2022-10-09T10:22:14.148Z,0.90
2022-10-09T10:27:25.784Z,1.00
2022-10-09T10:37:53.594Z,0.63
2022-10-09T10:43:04.586Z,0.80
2022-10-09T10:48:17.010Z,0.70
2022-10-09T10:53:30.835Z,1.07
2022-10-09T10:58:41.737Z,0.93
2022-10-09T11:03:52.684Z,0.80
2022-10-09T11:09:04.052Z,0.80
2022-10-09T11:14:19.903Z,0.90
2022-10-09T11:19:28.174Z,0.80
2022-10-09T11:24:39.144Z,0.60
2022-10-09T11:29:49.695Z,0.63
2022-10-09T11:35:00.909Z,0.80
2022-10-09T11:40:12.405Z,0.80
2022-10-09T11:50:36.990Z,0.57
2022-10-09T11:55:44.914Z,0.60
2022-10-09T12:00:55.165Z,0.70
2022-10-09T12:06:06.349Z,0.77
2022-10-09T12:11:17.003Z,0.83
2022-10-09T12:16:28.008Z,0.60
2022-10-09T12:21:39.072Z,0.90
2022-10-09T12:26:48.719Z,0.70
2022-10-09T12:32:00.336Z,0.63
2022-10-09T12:37:12.256Z,0.67
2022-10-09T12:42:23.103Z,0.90
2022-10-09T12:47:31.996Z,0.63
2022-10-09T12:52:43.712Z,0.70
2022-10-09T12:57:52.041Z,0.60
2022-10-09T13:03:01.183Z,0.80
2022-10-09T13:08:13.021Z,1.07
2022-10-09T13:13:24.487Z,1.00
2022-10-09T13:18:33.399Z,0.80
2022-10-09T13:23:41.475Z,0.70
2022-10-09T13:28:49.607Z,0.67
2022-10-09T13:33:57.588Z,0.77
2022-10-09T13:39:06.384Z,0.37
2022-10-09T13:44:14.232Z,0.97
2022-10-09T13:49:22.664Z,0.50
2022-10-09T13:54:31.975Z,0.50
2022-10-09T13:59:40.250Z,0.80
2022-10-09T14:04:49.680Z,0.60
2022-10-09T14:09:57.724Z,0.60
2022-10-09T14:15:05.816Z,0.60
2022-10-09T14:20:14.180Z,0.70
2022-10-09T14:25:22.362Z,0.60
2022-10-09T14:30:31.389Z,1.17
2022-10-09T14:35:39.834Z,0.50
2022-10-09T14:40:47.899Z,0.90
2022-10-09T14:45:58.993Z,0.87
2022-10-09T14:51:09.047Z,1.47
2022-10-09T14:56:19.583Z,2.07
2022-10-09T15:01:27.443Z,0.77
2022-10-09T15:06:35.747Z,1.20
2022-10-09T15:11:44.444Z,1.00
2022-10-09T15:16:52.516Z,0.70
2022-10-09T15:22:01.650Z,0.80
2022-10-09T15:27:09.593Z,3.47
2022-10-09T15:32:17.587Z,1.30
2022-10-09T15:37:25.993Z,1.20
2022-10-09T15:42:35.898Z,4.67
2022-10-09T15:47:51.492Z,5.80
2022-10-09T15:52:55.669Z,5.27
2022-10-09T15:58:03.761Z,5.23
2022-10-09T16:03:12.870Z,4.17
2022-10-09T16:08:21.527Z,3.47
2022-10-09T16:13:30.595Z,3.13
2022-10-09T16:18:38.682Z,3.00
2022-10-09T16:23:48.156Z,2.97
2022-10-09T16:28:56.472Z,2.43
2022-10-09T16:34:05.735Z,2.30
2022-10-09T16:39:13.756Z,3.07
2022-10-09T16:44:21.924Z,3.23
2022-10-09T16:49:29.953Z,5.30
2022-10-09T16:54:39.605Z,5.50
2022-10-09T16:59:48.526Z,4.87
2022-10-09T17:04:57.239Z,3.60
2022-10-09T17:10:06.074Z,4.10
2022-10-09T17:15:14.124Z,4.33
2022-10-09T17:20:22.751Z,5.90
2022-10-09T17:25:30.652Z,9.50
2022-10-09T17:30:41.715Z,7.13
2022-10-09T17:35:50.942Z,8.00
2022-10-09T17:40:59.101Z,7.27
2022-10-09T17:46:09.245Z,8.93
2022-10-09T17:51:20.056Z,12.43
2022-10-09T17:56:30.632Z,13.43
2022-10-09T18:01:41.358Z,15.70
2022-10-09T18:06:49.448Z,16.47
2022-10-09T18:11:57.795Z,12.40
2022-10-09T18:17:05.994Z,8.13
2022-10-09T18:22:14.518Z,9.23
2022-10-09T18:27:24.209Z,8.50
2022-10-09T18:32:32.436Z,8.53
2022-10-09T18:37:42.684Z,8.63
2022-10-09T18:42:52.511Z,10.37
2022-10-09T18:48:01.766Z,9.93
2022-10-09T18:53:11.077Z,10.07
2022-10-09T18:58:21.626Z,9.50
2022-10-09T19:03:29.938Z,11.97
2022-10-09T19:08:39.624Z,13.23
2022-10-09T19:13:48.208Z,13.17
2022-10-09T19:18:59.581Z,12.87
2022-10-09T19:24:07.932Z,14.80
2022-10-09T19:29:17.061Z,13.20
2022-10-09T19:34:25.269Z,13.43
2022-10-09T19:39:33.798Z,11.27
2022-10-09T19:44:44.278Z,10.97
2022-10-09T19:49:52.224Z,9.77
2022-10-09T19:55:00.387Z,8.97
2022-10-09T20:00:10.522Z,9.13
2022-10-09T20:05:18.598Z,8.80
2022-10-09T20:10:28.970Z,9.33
2022-10-09T20:15:40.952Z,9.90
2022-10-09T20:20:50.638Z,9.83
2022-10-09T20:26:01.122Z,9.67
2022-10-09T20:31:09.997Z,8.07
2022-10-09T20:36:20.513Z,7.73
2022-10-09T20:41:29.223Z,8.50
2022-10-09T20:46:38.676Z,10.70
2022-10-09T20:51:46.788Z,10.00
2022-10-09T20:56:54.772Z,10.23
2022-10-09T21:02:03.315Z,10.20
2022-10-09T21:07:11.367Z,8.80
2022-10-09T21:12:19.832Z,8.30
2022-10-09T21:17:28.159Z,8.77
2022-10-09T21:22:35.978Z,9.00
2022-10-09T21:27:43.911Z,8.70
2022-10-09T21:32:52.197Z,7.73
2022-10-09T21:38:00.466Z,7.97
2022-10-09T21:43:08.663Z,9.17
2022-10-09T21:48:17.147Z,7.80
2022-10-09T21:53:25.350Z,7.40
2022-10-09T21:58:33.356Z,7.03
2022-10-09T22:03:42.018Z,6.70
2022-10-09T22:08:49.840Z,7.10
2022-10-09T22:13:57.952Z,6.93
2022-10-09T22:19:06.360Z,6.00
2022-10-09T22:24:15.296Z,6.33
2022-10-09T22:29:26.237Z,6.07
2022-10-09T22:34:34.112Z,5.30
2022-10-09T22:39:42.031Z,5.47
2022-10-09T22:44:49.991Z,6.30
2022-10-09T22:49:57.916Z,5.77
2022-10-09T22:55:06.110Z,6.63
2022-10-09T23:00:14.633Z,6.57
2022-10-09T23:05:24.339Z,5.80
2022-10-09T23:10:32.178Z,5.47
2022-10-09T23:15:40.082Z,6.70
2022-10-09T23:20:47.888Z,6.40
2022-10-09T23:25:55.727Z,8.23
2022-10-09T23:31:04.757Z,8.83
2022-10-09T23:36:14.332Z,7.77
2022-10-09T23:41:23.964Z,6.10
2022-10-09T23:46:34.460Z,4.63
2022-10-09T23:51:42.805Z,5.13
2022-10-09T23:56:51.759Z,5.77
